SKSP/ADZ METAR and TAF weather

Enter ICAO airport designator
Station Type Date Time Source
SKSP METAR 2021/05/10 01:00 UTC NOAA

SKSP 100100Z 06012KT 9999 FEW016 28/24 Q1012 RMK A2989


Station Type Date Time Source
SKSP Decoded METAR 2021/05/10 01:00 UTC NOAA

San Andres Isla / Sesquicentenario, Colombia (SKSP) 12-35N 081-43W 6M
May 09, 2021 - 09:00 PM EDT / 2021.05.10 0100 UTC
Wind: from the ENE (060 degrees) at 14 MPH (12 KT):0
Visibility: greater than 7 mile(s):0
Sky conditions: mostly clear
Temperature: 82 F (28 C)
Dew Point: 75 F (24 C)
Relative Humidity: 78%
Pressure (altimeter): 29.88 in. Hg (1012 hPa)
ob: SKSP 100100Z 06012KT 9999 FEW016 28/24 Q1012 RMK A2989
cycle: 1

Station Type Date Time Source
SKSP TAF 2021/05/09 18:40 UTC NOAA

TAF SKSP 091630Z 0918/1018 07014KT 9999 SCT017 PROB40 1008/10012 DZRA SCT015TCU TX32/0918Z TN25/1010Z

Example: see airport list